AirNav   Bose ProFlight Series 2 Headset
 
 1364 users online  

45IA Great River Medical Center Heliport
West Burlington, Iowa, USA

GOING TO WEST BURLINGTON?


FAA INFORMATION EFFECTIVE 30 JANUARY 2020

Location

FAA Identifier: 45IA
Lat/Long: 40-48-38.2500N 091-10-25.9800W
40-48.637500N 091-10.433000W
40.8106250,-91.1738833
(estimated)
Elevation: 700 ft. / 213 m (estimated)
Variation: 01E (2000)
From city: 1 mile NE of WEST BURLINGTON, IA
Time zone: UTC -6 (UTC -5 during Daylight Saving Time)
Zip code: 52655

Heliport Operations

Heliport use: Private use, MEDICAL USE.
Activation date: 12/2000
Control tower: no
ARTCC: CHICAGO CENTER
FSS: FORT DODGE FLIGHT SERVICE STATION
Attendance: UNATNDD
Wind indicator: yes
Segmented circle: no
Lights: ACTVT PERIMETER LGTS - CTAF.
Beacon: white-green-yellow (heliport)
Operates sunset to sunrise.

Heliport Communications

WX ASOS at BRL (2.7 nm SE): 118.025 (319-752-6246)
WX AWOS-3 at FSW (11 nm SW): 120.925 (319-372-5147)
WX AWOS-3 at MPZ (17 nm NW): 119.325 (319-385-4926)

Nearby radio navigation aids

VOR radial/distance  VOR name  Freq  Var
BRLr290/12.4BURLINGTON VOR/DME111.4005E
GBGr254/34.4GALESBURG VOR/DME109.8003E
MZVr213/39.0MOLINE VOR/DME114.4005E

 
NDB name  Hdg/Dist  Freq  Var  ID
BURNS345/9.739001EBR -... .-.
KEOKUK028/23.936602EEOK . --- -.-
MACOMB301/33.025101EJZY .--- --.. -.--

Heliport Services

Runway Information

Helipad H1

Dimensions: 50 x 50 ft. / 15 x 15 m
Surface: concrete
Runway edge lights: PERI
Latitude: 40-48.637500N
Longitude: 091-10.433000W
Elevation: 700.0 ft.
Traffic pattern: leftleft
Markings: basic, in good condition

Heliport Ownership and Management from official FAA records

Ownership: Privately-owned
Owner: GREAT RIVER MEDICAL CENTER
1401 F WEST AGENCY ROAD
WEST BURLINGTON, IA 52655
Phone 319-768-3807
Manager: JOHN E MERCER
1401 F WEST AGENCY ROAD
WEST BURLINGTON, IA 52655
Phone 319-768-3807

Additional Remarks

OWNER DESIRES HELIPORT NOT BE CHARTED.
FOR CD CTC CHICAGO ARTCC AT 630-906-8921.

Instrument Procedures

There are no published instrument procedures at 45IA.

Some nearby airports with instrument procedures:

KBRL - Southeast Iowa Regional Airport (3 nm SE)
KFSW - Fort Madison Municipal Airport (11 nm SW)
KMPZ - Mount Pleasant Municipal Airport (17 nm NW)
KEOK - Keokuk Municipal Airport (24 nm SW)
C66 - Monmouth Municipal Airport (26 nm E)
 
Loc | Ops | Rwys | IFR | FBO | Links
Com | Nav | Svcs | Stats | Notes
Area around 45IA (Great River Medical Center Heliport)
 
Road maps at: MapQuest Bing Google
 
Aerial photo
No photo
 
Sectional chart

 
Airport distance calculator
Flying to Great River Medical Center Heliport? Find the distance to fly.

From to 45IA

Sunrise and sunset
Times for 17-Feb-2020
 Local
(UTC-6)
 Zulu
(UTC)
Morning civil twilight06:2912:29
Sunrise06:5712:57
Sunset17:4023:40
Evening civil twilight18:0800:08

Current date and time
Zulu (UTC)  17-Feb-2020 16:29:40
Local (UTC-6)  17-Feb-2020 10:29:40
 
METAR
KBRL 
3nm SE 
171553Z AUTO 10006KT 5SM BR FEW037 BKN060 BKN080 02/01 A2993 RMK AO2 UPE08 SLP141 P0000 T00220006 $
KFSW 
11nm SW 
171615Z AUTO 12006KT 4SM -DZ 03/02 A2992 RMK AO2
KMPZ 
18nm NW 
171615Z AUTO 12008KT 4SM BR SCT022 BKN060 OVC085 03/02 A2990 RMK AO2
TAF
KBRL 
3nm SE 
171120Z 1712/1812 09007KT P6SM VCSH OVC050 FM171400 12009KT 6SM -RA BR OVC025 FM171700 13010KT 5SM BR OVC008 FM180200 29012KT P6SM SCT010 OVC025
NOTAMs
Click for the latest NOTAMs
NOTAMs are issued by the DoD/FAA and will open in a separate window not controlled by AirNav.

 

 
 

Would you like to see your business listed on this page?

 If your business provides an interesting product or service to pilots, flight crews, aircraft, or users of the Great River Medical Center Heliport, you should consider listing it here.  To start the listing process, click on the button below
 
Add a business
 

Other Pages about Great River Medical Center Heliport

Update a link
 
Copyright © AirNav, LLC. All rights reserved. Privacy Policy  Contact